Skip Navigation Links
NOAA logo - Click to go to the NOAA homepage
NOAA's National Weather Service
Alaska Aviation Weather Unit
  NWS logo - Click to go to the NWS homepage
Left Navbar Graphic     12 AKDT = 20 GMT

   
NOAA is celebrating 200 years of science, service, and stewardship. Visit the NOAA 200th celebration Web site to learn more.
USA.gov is the U.S. Government's official Web portal to all Federal, state and local government Web resources and services.
Facebook
NWS on Facebook

Important Change Regarding the AAWU Web Presence

 

Over the last several months, the AAWU has been working to navigate its webpages to a nationally supported server. Security, as well as other needs, have necessitated the change.  We have been given an extension for the site changeover while we diligently work at addressing feedback received. As of July 14, 2017, aawu.arh.noaa.gov will be discontinued. The new AAWU web address is weather.gov/aawu. It is now live and will run in-parallel with the old site until it is discontinued on July 14, 2017. Please continue to send any feedback or questions regarding the new webpages to nws.ar.aawu.webauthors@noaa.gov.  Thank you for your patience during this time of transition.
AAWU Home :: Display TAF Add Bookmark
SPECI PADM 251413Z AUTO 19004KT 10SM FEW006 OVC028 11/11 A2994 RMK AO2
     PRESFR=

SPECI PADM 251453Z AUTO 18004KT 5SM BR BKN005 OVC028 11/11 A2996 RMK
     AO2=

METAR PADM 251456Z AUTO 18003KT 5SM BR BKN005 OVC028 11/11 A2996 RMK AO2
     SLP154 60000 T01110111 53001=

SPECI PADM 251539Z AUTO 21003KT 10SM FEW005 BKN017 OVC037 11/11 A2997
     RMK AO2=

METAR PADM 251556Z AUTO 19004KT 10SM FEW010 BKN015 OVC035 11/11
    A2996 RMK AO2 SLP154 T01110111=

SPECI PADM 251613Z AUTO 00000KT 10SM BKN013 OVC025 12/11 A2993 RMK AO2
     PRESFR=

SPECI PADM 251620Z AUTO 00000KT 10SM FEW008 BKN013 OVC025 12/11 A2996
     RMK AO2=

SPECI PADM 251635Z AUTO 00000KT 1 3/4SM BR SCT006 BKN012 OVC025 12/11
     A2996 RMK AO2=

SPECI PADM 251649Z AUTO 00000KT 2SM -RA BR SCT004 SCT008 OVC012 12/11
     A2995 RMK AO2 RAB41 P0000=

SPECI PADM 251653Z AUTO 00000KT 1 1/2SM BR BKN004 OVC012 12/11 A2996 RMK
     AO2 VIS 1 1/4V2 1/2 RAB41E53 CIG 003V008 P0000=

METAR PADM 251656Z AUTO 00000KT 1 1/2SM BR SCT004 BKN008 OVC012 12/11
     A2996 RMK AO2 RAB41E53 CIG 006V011 SLP153 P0000 T01170111=

SPECI PADM 251720Z AUTO 00000KT 1 1/4SM BR BKN004 BKN009 OVC032 12/11
     A2996 RMK AO2=

SPECI PADM 251733Z AUTO 00000KT 3SM BR BKN004 BKN031 OVC038 12/11 A2996
     RMK AO2 CIG 003V009=

METAR PADM 251756Z AUTO 14003KT 9SM BKN004 OVC038 12/11 A2995 RMK AO2
     SLP152 60000 T01220111 10122 20111 58002=

SPECI PADM 251817Z AUTO VRB04KT 10SM OVC006 13/12 A2994 RMK AO2 CIG
     003V010=

SPECI PADM 251846Z AUTO 23004KT 10SM SCT008 SCT016 OVC037 13/12 A2995
     RMK AO2=

METAR PADM 251856Z AUTO 23006KT 10SM SCT008 SCT023 OVC039 13/12 A2992
     RMK AO2 SLP142 T01280117=

SPECI PADM 251940Z AUTO 25005KT 10SM SCT010 BKN013 OVC041 13/12 A2995
     RMK AO2=

METAR PADM 251956Z AUTO 28004KT 10SM BKN010 OVC022 13/12 A2994 RMK AO2
     SLP146 T01330117=

PADM 252009Z AUTO 30005KT 10SM SCT010 OVC022 14/12 A2994 RMK
     AO2=

SPECI PADM 252039Z AUTO 27004KT 10SM SCT013 SCT020 OVC034 15/12 A2993
     RMK AO2=


NOAA's National Weather Service
Alaska Aviation Weather Unit
6930 Sand Lake Road
Anchorage, AK 99502-1845
Disclaimer
Credits
Glossary
Privacy Policy
About Us
Career Opportunities
Contact AAWU Internet Services Site last modified: April, 17th 2012